Time;durP1;ratioP1;P1;durP2;ratioP2;P2;SDS_P1;SDS_P2;PMS_P1;PMS_P2;Temp;Humidity;BMP_temperature;BMP_pressure;BME280_temperature;BME280_humidity;BME280_pressure;Samples;Min_cycle;Max_cycle;Signal;HPM_P1;HPM_P2
2023/07/19 06:12:50;;;;;;;10.85;4.57;;;;;;;26.71;58.66;100133.25;5602166;31;76645;-61
2023/07/19 06:15:54;;;;;;;11.68;4.70;;;;;;;26.71;58.66;100133.25;5597349;31;33311;-61
2023/07/19 06:18:56;;;;;;;12.60;4.68;;;;;;;26.30;57.99;100128.19;5600653;31;33638;-62
2023/07/19 06:21:59;;;;;;;14.38;5.37;;;;;;;26.39;60.30;100120.31;5599343;31;33706;-62
2023/07/19 06:25:01;;;;;;;11.45;4.95;;;;;;;26.50;58.46;100136.06;5600232;31;34400;-62
2023/07/19 06:28:04;;;;;;;9.80;5.47;;;;;;;26.51;57.72;100132.13;5598169;31;33740;-62
2023/07/19 06:31:06;;;;;;;14.43;5.97;;;;;;;26.51;57.48;100127.41;5599215;31;32833;-62
2023/07/19 06:34:09;;;;;;;8.73;4.80;;;;;;;26.54;58.53;100128.59;5599111;31;33501;-62
2023/07/19 06:37:11;;;;;;;11.25;5.28;;;;;;;26.65;59.36;100132.09;5599925;31;33564;-62
2023/07/19 06:40:13;;;;;;;8.90;4.40;;;;;;;26.72;58.26;100132.06;5601217;31;33579;-61
2023/07/19 06:43:16;;;;;;;9.75;4.37;;;;;;;26.86;58.01;100123.81;5599133;31;34448;-61
2023/07/19 06:46:19;;;;;;;9.98;4.75;;;;;;;27.01;57.66;100115.50;5600209;31;33619;-61
2023/07/19 06:49:21;;;;;;;10.45;4.62;;;;;;;27.21;58.42;100113.09;5598467;31;33589;-61
2023/07/19 06:52:24;;;;;;;11.98;4.45;;;;;;;27.17;57.13;100113.12;5600644;31;33624;-61
2023/07/19 06:55:29;;;;;;;10.20;4.30;;;;;;;27.32;58.36;100103.62;5598217;31;33414;-61
2023/07/19 06:58:32;;;;;;;8.00;4.22;;;;;;;27.19;57.00;100105.25;5601535;31;33627;-62
2023/07/19 07:01:35;;;;;;;9.43;4.62;;;;;;;27.09;56.64;100106.84;5599093;31;33756;-61
2023/07/19 07:04:38;;;;;;;12.90;5.32;;;;;;;27.08;57.22;100102.50;5600421;31;34778;-62
2023/07/19 07:07:40;;;;;;;9.27;4.87;;;;;;;27.13;56.75;100102.13;5600541;31;33235;-61
2023/07/19 07:10:43;;;;;;;10.82;4.93;;;;;;;27.15;59.29;100094.25;5599864;31;33703;-61
2023/07/19 07:13:46;;;;;;;7.00;4.53;;;;;;;27.27;59.15;100095.00;5599040;31;33578;-61
2023/07/19 07:16:48;;;;;;;10.50;4.90;;;;;;;27.38;58.96;100087.44;5599751;31;34383;-61
2023/07/19 07:19:53;;;;;;;11.45;5.12;;;;;;;27.46;58.48;100082.72;5600304;31;34369;-61
2023/07/19 07:22:56;;;;;;;17.73;4.65;;;;;;;27.40;56.98;100082.34;5592177;31;32154;-61
2023/07/19 07:25:58;;;;;;;12.88;5.32;;;;;;;27.44;58.47;100080.34;5586557;31;32762;-61
2023/07/19 07:29:01;;;;;;;14.70;5.60;;;;;;;27.55;57.08;100097.59;5585076;31;34272;-62
2023/07/19 07:32:03;;;;;;;11.07;5.03;;;;;;;27.47;57.76;100096.06;5585434;31;33715;-61
2023/07/19 07:35:06;;;;;;;8.90;5.03;;;;;;;27.58;56.32;100096.00;5585393;31;34263;-62
2023/07/19 07:38:09;;;;;;;8.77;4.43;;;;;;;27.54;56.68;100098.75;5584917;31;33719;-61
2023/07/19 07:41:12;;;;;;;12.48;5.50;;;;;;;27.51;57.27;100107.03;5585492;31;33591;-61
2023/07/19 07:44:15;;;;;;;11.98;5.40;;;;;;;27.60;56.65;100091.66;5585835;31;33749;-61
2023/07/19 07:47:17;;;;;;;11.25;5.20;;;;;;;27.75;58.15;100092.34;5585429;31;33641;-61
2023/07/19 07:50:19;;;;;;;12.63;5.13;;;;;;;27.81;56.55;100095.47;5586518;31;33797;-62
2023/07/19 07:53:22;;;;;;;10.52;4.65;;;;;;;27.81;55.83;100104.50;5585480;31;34300;-62
2023/07/19 07:56:25;;;;;;;14.30;5.57;;;;;;;27.87;56.53;100099.38;5584870;31;33532;-62
2023/07/19 07:59:27;;;;;;;10.73;5.62;;;;;;;27.91;55.84;100096.59;5585980;31;34712;-62
2023/07/19 08:02:29;;;;;;;13.38;5.95;;;;;;;27.85;57.06;100096.25;5586694;31;33170;-62
2023/07/19 08:05:32;;;;;;;13.10;5.47;;;;;;;27.74;56.78;100103.75;5585831;31;33545;-61
2023/07/19 08:08:34;;;;;;;11.95;5.47;;;;;;;27.65;57.40;100106.97;5585679;31;33628;-62
2023/07/19 08:11:37;;;;;;;13.70;5.53;;;;;;;27.60;57.37;100090.88;5586671;31;32734;-62
2023/07/19 08:14:40;;;;;;;9.38;5.22;;;;;;;27.63;57.02;100084.56;5586181;31;34020;-62
2023/07/19 08:17:44;;;;;;;11.32;4.70;;;;;;;27.59;56.81;100083.81;5585007;31;33576;-62
2023/07/19 08:20:46;;;;;;;12.52;5.35;;;;;;;27.55;57.80;100083.03;5586168;31;33302;-61
2023/07/19 08:23:53;;;;;;;9.77;5.00;;;;;;;27.62;58.04;100075.53;5585476;31;34298;-62
2023/07/19 08:26:55;;;;;;;9.45;5.05;;;;;;;27.70;58.60;100067.22;5586738;31;33264;-62
2023/07/19 08:29:59;;;;;;;9.77;5.20;;;;;;;27.73;58.68;100071.91;5585113;31;33954;-62
2023/07/19 08:33:08;;;;;;;11.38;4.90;;;;;;;27.79;58.64;100076.59;5587141;31;33626;-62
2023/07/19 08:36:10;;;;;;;12.32;5.12;;;;;;;27.78;58.63;100079.75;5584404;31;32840;-62
2023/07/19 08:39:12;;;;;;;12.02;5.62;;;;;;;27.82;59.11;100075.81;5583671;31;34380;-62
2023/07/19 08:42:15;;;;;;;12.60;5.00;;;;;;;27.91;58.46;100075.31;5586913;31;34268;-61
2023/07/19 08:45:21;;;;;;;9.82;4.93;;;;;;;28.06;58.15;100070.50;5586729;31;34313;-62
2023/07/19 08:48:24;;;;;;;10.85;5.10;;;;;;;28.19;57.07;100079.81;5586189;31;33673;-62
2023/07/19 08:51:26;;;;;;;11.45;5.20;;;;;;;28.29;57.30;100084.47;5585174;31;33569;-62
2023/07/19 08:54:29;;;;;;;8.07;5.25;;;;;;;28.51;56.80;100089.78;5586614;31;33598;-62
2023/07/19 08:57:32;;;;;;;9.18;5.62;;;;;;;28.52;55.28;100085.84;5584610;31;32785;-62
2023/07/19 09:00:34;;;;;;;9.73;5.70;;;;;;;28.58;56.25;100086.97;5585316;31;33810;-62
2023/07/19 09:03:37;;;;;;;11.80;5.20;;;;;;;28.63;55.81;100089.28;5585826;31;33550;-61
2023/07/19 09:06:41;;;;;;;6.90;5.25;;;;;;;28.69;55.07;100098.66;5585354;31;33559;-61
2023/07/19 09:09:54;;;;;;;10.30;5.70;;;;;;;28.73;54.12;100090.34;5585799;31;34653;-62
2023/07/19 09:12:57;;;;;;;11.52;6.28;;;;;;;28.77;53.65;100093.84;5585966;31;33238;-62
2023/07/19 09:16:02;;;;;;;9.45;5.90;;;;;;;28.75;53.74;100091.50;5586655;31;34305;-62
2023/07/19 09:19:04;;;;;;;9.90;5.82;;;;;;;28.75;54.23;100090.72;5583142;31;34297;-62
2023/07/19 09:22:07;;;;;;;11.80;5.65;;;;;;;28.78;54.00;100096.19;5586616;31;34317;-62
2023/07/19 09:25:11;;;;;;;8.40;5.45;;;;;;;28.74;52.32;100094.66;5586489;31;33794;-62
2023/07/19 09:28:13;;;;;;;11.35;5.53;;;;;;;28.78;51.55;100089.91;5586254;31;32814;-62
2023/07/19 09:31:16;;;;;;;10.98;5.80;;;;;;;28.73;51.81;100098.63;5585051;31;33567;-62
2023/07/19 09:34:37;;;;;;;10.77;5.20;;;;;;;28.67;51.07;100098.28;5585513;31;34314;-62
2023/07/19 09:37:40;;;;;;;8.60;4.93;;;;;;;28.66;50.02;100093.97;5583276;31;34350;-62
2023/07/19 09:40:42;;;;;;;9.00;5.22;;;;;;;28.67;49.52;100083.72;5584197;31;33693;-62
2023/07/19 09:43:47;;;;;;;9.38;5.22;;;;;;;28.72;50.55;100084.06;5585941;31;34215;-62
2023/07/19 09:46:49;;;;;;;16.33;5.30;;;;;;;28.77;50.30;100088.31;5584516;31;33021;-62
2023/07/19 09:49:53;;;;;;;10.82;5.15;;;;;;;28.79;50.80;100081.22;5583565;31;34333;-62
2023/07/19 09:52:58;;;;;;;8.65;5.45;;;;;;;28.79;50.81;100085.94;5585013;31;34311;-62
2023/07/19 09:56:02;;;;;;;10.25;5.43;;;;;;;28.83;50.51;100089.44;5585827;31;33517;-62
2023/07/19 09:59:10;;;;;;;9.40;5.15;;;;;;;28.72;48.97;100088.78;5585081;31;33609;-61
2023/07/19 10:02:13;;;;;;;9.90;5.57;;;;;;;28.69;49.82;100093.16;5583228;31;34315;-62
2023/07/19 10:05:16;;;;;;;8.52;5.10;;;;;;;28.66;50.75;100088.44;5585316;31;34328;-62
2023/07/19 10:08:18;;;;;;;10.98;5.53;;;;;;;28.68;49.97;100083.31;5585229;31;34277;-62
2023/07/19 10:11:23;;;;;;;9.65;5.50;;;;;;;28.71;49.83;100081.69;5579182;31;33641;-60
2023/07/19 10:14:28;;;;;;;8.45;5.00;;;;;;;28.73;48.71;100071.81;5563987;32;34183;-60
2023/07/19 10:17:41;;;;;;;12.73;5.50;;;;;;;28.76;47.71;100078.50;5565116;32;32787;-60
2023/07/19 10:20:44;;;;;;;8.55;4.75;;;;;;;28.76;49.32;100059.19;5565331;32;33561;-60
2023/07/19 10:23:46;;;;;;;10.15;5.68;;;;;;;28.82;48.55;100054.00;5565118;32;33882;-59
2023/07/19 10:26:48;;;;;;;9.93;5.28;;;;;;;28.82;48.62;100049.25;5566474;32;34425;-60
2023/07/19 10:30:04;;;;;;;12.45;5.18;;;;;;;28.83;48.64;100052.81;5564612;32;34257;-60
2023/07/19 10:33:06;;;;;;;12.75;5.53;;;;;;;28.84;49.39;100048.84;5564547;32;33669;-59
2023/07/19 10:36:09;;;;;;;10.52;4.85;;;;;;;28.90;47.83;100045.22;5565119;32;34296;-59
2023/07/19 10:39:11;;;;;;;8.70;4.57;;;;;;;28.92;46.62;100031.03;5561015;32;34291;-59
2023/07/19 10:42:14;;;;;;;11.12;5.40;;;;;;;28.94;45.69;100037.69;5564737;32;33610;-60
2023/07/19 10:45:16;;;;;;;9.95;4.80;;;;;;;28.96;47.51;100029.75;5564607;32;33722;-60
2023/07/19 10:48:24;;;;;;;9.60;5.00;;;;;;;29.03;46.88;100023.41;5564403;32;33675;-60
2023/07/19 10:51:26;;;;;;;7.47;4.90;;;;;;;29.06;45.94;100013.50;5563392;32;34275;-61
2023/07/19 10:54:28;;;;;;;12.35;5.07;;;;;;;29.10;47.00;100003.19;5564904;32;33651;-60
2023/07/19 10:57:51;;;;;;;8.98;4.90;;;;;;;29.12;48.04;99998.84;5565780;32;33748;-60
2023/07/19 11:00:56;;;;;;;12.07;4.97;;;;;;;29.14;45.41;99987.38;5568155;32;33702;-60
2023/07/19 11:04:03;;;;;;;11.15;5.10;;;;;;;29.20;46.54;100002.28;5567097;32;33611;-61
2023/07/19 11:07:06;;;;;;;7.70;4.35;;;;;;;29.16;46.96;100016.13;5567540;32;34281;-61
2023/07/19 11:10:08;;;;;;;11.52;4.65;;;;;;;29.17;45.91;100020.47;5567885;32;34328;-60
2023/07/19 11:13:11;;;;;;;7.78;4.95;;;;;;;29.23;46.52;100015.25;5565978;32;32828;-60
2023/07/19 11:16:13;;;;;;;8.40;4.62;;;;;;;29.36;45.97;100018.22;5566517;32;33557;-60
2023/07/19 11:19:34;;;;;;;10.77;5.10;;;;;;;29.42;45.46;100016.56;5566646;32;34385;-61
2023/07/19 11:22:36;;;;;;;9.27;4.65;;;;;;;29.48;46.04;100014.88;5565862;32;33135;-62
2023/07/19 11:25:39;;;;;;;9.30;4.72;;;;;;;29.53;45.08;99997.03;5566838;32;33821;-62
2023/07/19 11:28:56;;;;;;;11.30;4.80;;;;;;;29.60;44.42;99983.94;5566976;32;34344;-62
2023/07/19 11:32:21;;;;;;;12.30;5.32;;;;;;;29.75;44.65;100001.06;5565625;32;34436;-62
2023/07/19 11:35:27;;;;;;;12.77;4.93;;;;;;;29.88;44.40;99993.72;5569193;32;33771;-60
2023/07/19 11:38:32;;;;;;;9.07;4.43;;;;;;;29.98;42.71;99999.50;5565145;32;32900;-61
2023/07/19 11:41:34;;;;;;;9.50;4.62;;;;;;;30.01;42.28;99991.13;5567287;32;33756;-61
2023/07/19 11:44:44;;;;;;;8.98;4.43;;;;;;;30.11;42.87;99992.94;5568132;32;34326;-62
2023/07/19 11:47:51;;;;;;;10.85;4.70;;;;;;;30.19;41.73;99994.37;5568639;32;34387;-62
2023/07/19 11:50:54;;;;;;;9.88;4.32;;;;;;;30.22;40.78;99989.22;5565857;32;33678;-62
2023/07/19 11:53:56;;;;;;;9.85;4.75;;;;;;;30.23;40.63;99990.75;5565889;32;34395;-62
2023/07/19 11:56:59;;;;;;;6.72;4.20;;;;;;;30.19;40.10;99994.37;5567777;32;33611;-62
2023/07/19 12:00:01;;;;;;;11.77;4.50;;;;;;;30.16;40.19;99991.66;5567167;32;33429;-61
2023/07/19 12:03:05;;;;;;;8.70;4.20;;;;;;;30.14;40.06;99991.31;5567544;32;34331;-62
2023/07/19 12:06:08;;;;;;;6.25;4.18;;;;;;;30.21;40.51;99993.19;5565998;32;33711;-62
2023/07/19 12:09:13;;;;;;;12.27;4.78;;;;;;;30.26;39.26;99979.63;5565629;32;33574;-63
2023/07/19 12:12:15;;;;;;;9.07;4.20;;;;;;;30.24;40.09;99975.75;5567518;32;33675;-63
2023/07/19 12:15:18;;;;;;;12.10;4.53;;;;;;;30.22;39.35;99975.38;5568013;32;33708;-62
2023/07/19 12:18:21;;;;;;;12.37;4.65;;;;;;;30.20;39.98;99959.25;5567255;32;33677;-63
2023/07/19 12:21:23;;;;;;;10.75;5.15;;;;;;;30.19;40.99;99954.87;5566722;32;34413;-63
2023/07/19 12:24:26;;;;;;;8.75;5.00;;;;;;;30.25;41.59;99955.97;5564794;32;34357;-62
2023/07/19 12:27:29;;;;;;;11.48;5.10;;;;;;;30.27;39.78;99945.28;5565616;32;33705;-63
2023/07/19 12:30:32;;;;;;;13.32;5.57;;;;;;;30.27;39.97;99938.97;5566077;32;33787;-62
2023/07/19 12:33:34;;;;;;;8.88;4.97;;;;;;;30.35;40.10;99929.31;5576219;31;33146;-63
2023/07/19 12:36:36;;;;;;;9.13;4.82;;;;;;;30.30;40.64;99914.00;5567736;32;35829;-62
2023/07/19 12:39:42;;;;;;;12.02;5.20;;;;;;;30.37;40.72;99902.03;5566432;32;33676;-62
2023/07/19 12:42:44;;;;;;;13.98;4.62;;;;;;;30.36;41.24;99909.50;5566423;32;34472;-62
2023/07/19 12:45:47;;;;;;;8.77;4.50;;;;;;;30.34;40.92;99903.66;5569742;31;33826;-62
2023/07/19 12:48:49;;;;;;;11.25;4.85;;;;;;;30.43;39.99;99894.75;5572668;31;33574;-62
2023/07/19 12:51:51;;;;;;;10.57;4.70;;;;;;;30.44;39.77;99890.81;5565907;32;34320;-61
2023/07/19 12:54:56;;;;;;;11.55;5.40;;;;;;;30.59;38.50;99892.03;5565865;32;32196;-61
2023/07/19 12:57:58;;;;;;;13.30;4.57;;;;;;;30.64;39.31;99879.69;5565780;32;33702;-61
2023/07/19 13:01:01;;;;;;;10.95;4.28;;;;;;;30.64;39.81;99874.94;5566890;32;34950;-61
2023/07/19 13:04:04;;;;;;;9.27;4.12;;;;;;;30.66;39.18;99880.03;5565493;31;33308;-62
2023/07/19 13:07:08;;;;;;;16.30;4.50;;;;;;;30.81;36.84;99872.22;5565982;32;34940;-63
2023/07/19 13:10:13;;;;;;;11.98;4.30;;;;;;;30.85;36.73;99881.22;5566752;32;33490;-63
2023/07/19 13:13:17;;;;;;;6.80;4.07;;;;;;;30.88;37.94;99874.81;5566410;31;33693;-63
2023/07/19 13:16:19;;;;;;;7.60;4.25;;;;;;;30.88;38.00;99861.75;5579294;31;33712;-62
2023/07/19 13:19:23;;;;;;;10.45;4.28;;;;;;;30.94;37.01;99861.25;5568011;31;33701;-61
2023/07/19 13:22:27;;;;;;;9.20;4.00;;;;;;;30.96;35.16;99851.31;5564988;32;33807;-62
2023/07/19 13:25:29;;;;;;;10.20;4.15;;;;;;;30.94;35.83;99844.66;5575246;31;33753;-61
2023/07/19 13:28:31;;;;;;;9.13;4.95;;;;;;;30.93;36.00;99834.78;5568308;32;34301;-62
2023/07/19 13:31:36;;;;;;;8.45;3.70;;;;;;;31.00;34.68;99829.88;5565534;32;33744;-60
2023/07/19 13:34:42;;;;;;;7.25;3.87;;;;;;;31.00;34.68;99818.78;5565633;32;34450;-61
2023/07/19 13:37:45;;;;;;;6.12;3.47;;;;;;;31.00;34.56;99810.50;5566021;32;33934;-61
2023/07/19 13:40:50;;;;;;;;;;;;;;;31.07;33.32;99813.06;5566433;31;33876;-63
2023/07/19 13:43:55;;;;;;;12.63;3.83;;;;;;;31.08;33.88;99794.47;5584057;31;33865;-64
2023/07/19 13:46:58;;;;;;;11.57;4.10;;;;;;;31.17;32.53;99794.63;5568451;31;34334;-63
2023/07/19 13:50:02;;;;;;;11.05;3.60;;;;;;;31.18;33.06;99789.88;5571362;31;34130;-63
2023/07/19 13:53:04;;;;;;;6.37;3.37;;;;;;;31.18;32.84;99778.78;5571527;31;33632;-62
2023/07/19 13:56:06;;;;;;;10.68;4.20;;;;;;;31.15;33.28;99776.91;5568675;31;34368;-62
2023/07/19 13:59:09;;;;;;;6.10;4.00;;;;;;;31.16;33.85;99768.16;5572258;31;33699;-61
2023/07/19 14:02:11;;;;;;;10.88;4.12;;;;;;;31.17;34.01;99763.41;5578926;31;33658;-62
2023/07/19 14:05:14;;;;;;;8.45;3.45;;;;;;;31.20;33.99;99771.63;5576003;31;34083;-62
2023/07/19 14:08:17;;;;;;;9.50;4.18;;;;;;;31.25;33.76;99787.69;5576946;31;34381;-62
2023/07/19 14:11:19;;;;;;;14.70;4.50;;;;;;;31.30;33.79;99789.16;5575925;31;33578;-62
2023/07/19 14:14:21;;;;;;;9.52;4.07;;;;;;;31.29;34.25;99768.19;5574028;31;33723;-63
2023/07/19 14:17:25;;;;;;;10.07;3.90;;;;;;;31.24;33.56;99763.97;5576793;31;34325;-63
2023/07/19 14:20:29;;;;;;;9.23;3.90;;;;;;;31.38;33.02;99757.31;5571456;31;34418;-62
2023/07/19 14:23:32;;;;;;;8.50;3.62;;;;;;;31.28;32.86;99767.44;5575587;31;33906;-63
2023/07/19 14:26:35;;;;;;;6.07;3.45;;;;;;;31.29;33.34;99777.31;5584353;31;34351;-64
2023/07/19 14:29:40;;;;;;;7.82;4.07;;;;;;;31.30;33.19;99761.47;5585063;31;33396;-62
